GRZ529 Details

Departure: Vancouver International Airport (CYVR)
Arrival: Sacramento International Airport (KSMF)
Route: YVR05 J5 SEA LMT TUDOR2


Current Weather Information
CYVR 231400Z 07002KT 20SM MIFG FEW034 FEW070 SCT250 05/04 A3050 RMK SC1AC1CS2 AC TR SLP329
KSMF 231353Z 00000KT 10SM CLR 11/07 A3000 RMK AO2 SLP159 T01110067